sensor_id;sensor_type;location;lat;lon;timestamp;P1;durP1;ratioP1;P2;durP2;ratioP2
2289;SDS011;1153;47.986;7.898;2023-02-28T00:01:22;1.90;;;1.70;;
2289;SDS011;1153;47.986;7.898;2023-02-28T00:03:47;2.60;;;2.20;;
2289;SDS011;1153;47.986;7.898;2023-02-28T00:06:13;2.37;;;1.70;;
2289;SDS011;1153;47.986;7.898;2023-02-28T00:08:38;3.53;;;1.37;;
2289;SDS011;1153;47.986;7.898;2023-02-28T00:11:04;3.43;;;2.43;;
2289;SDS011;1153;47.986;7.898;2023-02-28T00:13:29;1.83;;;1.60;;
2289;SDS011;1153;47.986;7.898;2023-02-28T00:16:02;1.80;;;1.70;;
2289;SDS011;1153;47.986;7.898;2023-02-28T00:18:27;2.60;;;2.40;;
2289;SDS011;1153;47.986;7.898;2023-02-28T00:20:53;3.10;;;2.90;;
2289;SDS011;1153;47.986;7.898;2023-02-28T00:23:18;2.10;;;1.60;;
2289;SDS011;1153;47.986;7.898;2023-02-28T00:25:43;2.37;;;2.27;;
2289;SDS011;1153;47.986;7.898;2023-02-28T00:28:08;2.03;;;1.93;;
2289;SDS011;1153;47.986;7.898;2023-02-28T00:30:33;1.70;;;1.60;;
2289;SDS011;1153;47.986;7.898;2023-02-28T00:32:59;2.37;;;2.20;;
2289;SDS011;1153;47.986;7.898;2023-02-28T00:35:24;1.93;;;1.83;;
2289;SDS011;1153;47.986;7.898;2023-02-28T00:37:49;1.70;;;1.40;;
2289;SDS011;1153;47.986;7.898;2023-02-28T00:40:14;3.20;;;2.37;;
2289;SDS011;1153;47.986;7.898;2023-02-28T00:42:40;2.73;;;2.53;;
2289;SDS011;1153;47.986;7.898;2023-02-28T00:45:05;6.87;;;1.70;;
2289;SDS011;1153;47.986;7.898;2023-02-28T00:47:31;2.70;;;2.50;;
2289;SDS011;1153;47.986;7.898;2023-02-28T00:49:56;3.80;;;1.90;;
2289;SDS011;1153;47.986;7.898;2023-02-28T00:52:21;2.03;;;1.93;;
2289;SDS011;1153;47.986;7.898;2023-02-28T00:54:46;2.33;;;2.03;;
2289;SDS011;1153;47.986;7.898;2023-02-28T00:57:11;2.77;;;2.10;;
2289;SDS011;1153;47.986;7.898;2023-02-28T00:59:37;2.83;;;2.67;;
2289;SDS011;1153;47.986;7.898;2023-02-28T01:02:02;3.67;;;2.60;;
2289;SDS011;1153;47.986;7.898;2023-02-28T01:04:27;3.10;;;2.87;;
2289;SDS011;1153;47.986;7.898;2023-02-28T01:06:52;2.10;;;1.90;;
2289;SDS011;1153;47.986;7.898;2023-02-28T01:09:17;2.50;;;2.37;;
2289;SDS011;1153;47.986;7.898;2023-02-28T01:11:43;4.70;;;2.60;;
2289;SDS011;1153;47.986;7.898;2023-02-28T01:14:11;3.53;;;3.33;;
2289;SDS011;1153;47.986;7.898;2023-02-28T01:16:36;2.63;;;2.43;;
2289;SDS011;1153;47.986;7.898;2023-02-28T01:19:01;2.97;;;2.77;;
2289;SDS011;1153;47.986;7.898;2023-02-28T01:21:27;2.90;;;2.47;;
2289;SDS011;1153;47.986;7.898;2023-02-28T01:23:52;4.77;;;2.77;;
2289;SDS011;1153;47.986;7.898;2023-02-28T01:26:21;2.30;;;2.20;;
2289;SDS011;1153;47.986;7.898;2023-02-28T01:28:47;5.00;;;2.43;;
2289;SDS011;1153;47.986;7.898;2023-02-28T01:31:12;3.77;;;2.57;;
2289;SDS011;1153;47.986;7.898;2023-02-28T01:33:38;5.33;;;2.90;;
2289;SDS011;1153;47.986;7.898;2023-02-28T01:36:05;4.13;;;2.73;;
2289;SDS011;1153;47.986;7.898;2023-02-28T01:38:30;2.73;;;2.43;;
2289;SDS011;1153;47.986;7.898;2023-02-28T01:40:56;3.53;;;3.33;;
2289;SDS011;1153;47.986;7.898;2023-02-28T01:43:25;3.53;;;2.77;;
2289;SDS011;1153;47.986;7.898;2023-02-28T01:45:51;2.50;;;2.30;;
2289;SDS011;1153;47.986;7.898;2023-02-28T01:48:17;3.20;;;2.60;;
2289;SDS011;1153;47.986;7.898;2023-02-28T01:50:43;3.10;;;2.90;;
2289;SDS011;1153;47.986;7.898;2023-02-28T01:53:11;3.00;;;2.80;;
2289;SDS011;1153;47.986;7.898;2023-02-28T01:55:37;3.57;;;3.37;;
2289;SDS011;1153;47.986;7.898;2023-02-28T01:58:03;2.73;;;2.53;;
2289;SDS011;1153;47.986;7.898;2023-02-28T02:00:29;3.30;;;2.77;;
2289;SDS011;1153;47.986;7.898;2023-02-28T02:03:04;3.77;;;2.57;;
2289;SDS011;1153;47.986;7.898;2023-02-28T02:05:31;3.20;;;3.00;;
2289;SDS011;1153;47.986;7.898;2023-02-28T02:07:57;2.80;;;2.60;;
2289;SDS011;1153;47.986;7.898;2023-02-28T02:10:33;2.40;;;2.30;;
2289;SDS011;1153;47.986;7.898;2023-02-28T02:13:08;2.50;;;2.40;;
2289;SDS011;1153;47.986;7.898;2023-02-28T02:15:42;2.37;;;2.17;;
2289;SDS011;1153;47.986;7.898;2023-02-28T02:29:34;2.67;;;2.47;;
2289;SDS011;1153;47.986;7.898;2023-02-28T02:37:09;3.30;;;3.10;;
2289;SDS011;1153;47.986;7.898;2023-02-28T02:40:19;11.47;;;2.97;;
2289;SDS011;1153;47.986;7.898;2023-02-28T02:42:31;3.00;;;2.80;;
2289;SDS011;1153;47.986;7.898;2023-02-28T02:45:00;2.40;;;2.17;;
2289;SDS011;1153;47.986;7.898;2023-02-28T02:47:26;8.63;;;3.80;;
2289;SDS011;1153;47.986;7.898;2023-02-28T02:49:54;2.87;;;2.60;;
2289;SDS011;1153;47.986;7.898;2023-02-28T02:52:22;3.23;;;2.20;;
2289;SDS011;1153;47.986;7.898;2023-02-28T02:54:48;2.93;;;2.73;;
2289;SDS011;1153;47.986;7.898;2023-02-28T02:57:16;2.37;;;2.23;;
2289;SDS011;1153;47.986;7.898;2023-02-28T02:59:42;2.77;;;2.57;;
2289;SDS011;1153;47.986;7.898;2023-02-28T03:02:08;8.33;;;3.40;;
2289;SDS011;1153;47.986;7.898;2023-02-28T03:04:38;2.60;;;2.40;;
2289;SDS011;1153;47.986;7.898;2023-02-28T03:07:05;3.03;;;2.83;;
2289;SDS011;1153;47.986;7.898;2023-02-28T03:09:32;5.20;;;2.80;;
2289;SDS011;1153;47.986;7.898;2023-02-28T03:11:58;2.50;;;2.40;;
2289;SDS011;1153;47.986;7.898;2023-02-28T03:17:15;2.60;;;2.40;;
2289;SDS011;1153;47.986;7.898;2023-02-28T03:30:38;2.30;;;2.10;;
2289;SDS011;1153;47.986;7.898;2023-02-28T03:33:08;2.70;;;2.50;;
2289;SDS011;1153;47.986;7.898;2023-02-28T03:35:51;2.23;;;2.13;;
2289;SDS011;1153;47.986;7.898;2023-02-28T03:38:22;2.90;;;2.43;;
2289;SDS011;1153;47.986;7.898;2023-02-28T03:44:27;2.60;;;2.40;;
2289;SDS011;1153;47.986;7.898;2023-02-28T03:46:33;3.20;;;2.90;;
2289;SDS011;1153;47.986;7.898;2023-02-28T03:49:23;5.43;;;3.30;;
2289;SDS011;1153;47.986;7.898;2023-02-28T03:51:46;2.67;;;2.40;;
2289;SDS011;1153;47.986;7.898;2023-02-28T03:54:15;4.27;;;3.90;;
2289;SDS011;1153;47.986;7.898;2023-02-28T03:56:42;3.27;;;3.07;;
2289;SDS011;1153;47.986;7.898;2023-02-28T04:01:45;4.30;;;3.67;;
2289;SDS011;1153;47.986;7.898;2023-02-28T04:04:11;3.83;;;3.63;;
2289;SDS011;1153;47.986;7.898;2023-02-28T04:06:37;3.20;;;2.90;;
2289;SDS011;1153;47.986;7.898;2023-02-28T04:09:03;3.60;;;3.40;;
2289;SDS011;1153;47.986;7.898;2023-02-28T04:11:39;5.67;;;3.10;;
2289;SDS011;1153;47.986;7.898;2023-02-28T04:14:05;3.20;;;2.90;;
2289;SDS011;1153;47.986;7.898;2023-02-28T04:16:31;2.40;;;2.30;;
2289;SDS011;1153;47.986;7.898;2023-02-28T04:18:57;3.13;;;3.03;;
2289;SDS011;1153;47.986;7.898;2023-02-28T04:21:30;3.03;;;2.60;;
2289;SDS011;1153;47.986;7.898;2023-02-28T04:23:55;2.57;;;2.43;;
2289;SDS011;1153;47.986;7.898;2023-02-28T04:26:25;3.73;;;3.43;;
2289;SDS011;1153;47.986;7.898;2023-02-28T04:28:50;2.90;;;2.80;;
2289;SDS011;1153;47.986;7.898;2023-02-28T04:31:15;7.20;;;3.10;;
2289;SDS011;1153;47.986;7.898;2023-02-28T04:33:41;10.40;;;2.93;;
2289;SDS011;1153;47.986;7.898;2023-02-28T04:36:07;3.00;;;2.70;;
2289;SDS011;1153;47.986;7.898;2023-02-28T04:38:34;4.60;;;3.53;;
2289;SDS011;1153;47.986;7.898;2023-02-28T04:40:59;2.50;;;2.40;;
2289;SDS011;1153;47.986;7.898;2023-02-28T04:43:25;2.97;;;2.77;;
2289;SDS011;1153;47.986;7.898;2023-02-28T04:45:50;3.00;;;2.80;;
2289;SDS011;1153;47.986;7.898;2023-02-28T04:48:16;2.63;;;2.43;;
2289;SDS011;1153;47.986;7.898;2023-02-28T04:50:41;3.33;;;3.00;;
2289;SDS011;1153;47.986;7.898;2023-02-28T04:53:06;2.57;;;2.37;;
2289;SDS011;1153;47.986;7.898;2023-02-28T04:55:31;3.30;;;3.10;;
2289;SDS011;1153;47.986;7.898;2023-02-28T04:57:56;3.30;;;3.10;;
2289;SDS011;1153;47.986;7.898;2023-02-28T05:00:22;3.50;;;2.27;;
2289;SDS011;1153;47.986;7.898;2023-02-28T05:02:48;3.10;;;2.90;;
2289;SDS011;1153;47.986;7.898;2023-02-28T05:05:13;3.40;;;3.20;;
2289;SDS011;1153;47.986;7.898;2023-02-28T05:07:43;3.17;;;2.70;;
2289;SDS011;1153;47.986;7.898;2023-02-28T05:10:08;2.77;;;2.50;;
2289;SDS011;1153;47.986;7.898;2023-02-28T05:12:33;4.37;;;2.97;;
2289;SDS011;1153;47.986;7.898;2023-02-28T05:14:59;3.27;;;2.87;;
2289;SDS011;1153;47.986;7.898;2023-02-28T05:17:26;3.73;;;2.23;;
2289;SDS011;1153;47.986;7.898;2023-02-28T05:19:51;2.63;;;2.53;;
2289;SDS011;1153;47.986;7.898;2023-02-28T05:22:16;2.77;;;2.67;;
2289;SDS011;1153;47.986;7.898;2023-02-28T05:24:41;2.57;;;2.37;;
2289;SDS011;1153;47.986;7.898;2023-02-28T05:27:07;2.60;;;2.40;;
2289;SDS011;1153;47.986;7.898;2023-02-28T05:29:33;5.27;;;2.50;;
2289;SDS011;1153;47.986;7.898;2023-02-28T05:31:59;3.80;;;3.57;;
2289;SDS011;1153;47.986;7.898;2023-02-28T05:34:24;2.00;;;1.90;;
2289;SDS011;1153;47.986;7.898;2023-02-28T05:36:49;2.50;;;2.30;;
2289;SDS011;1153;47.986;7.898;2023-02-28T05:39:14;2.67;;;2.57;;
2289;SDS011;1153;47.986;7.898;2023-02-28T05:41:42;3.43;;;2.60;;
2289;SDS011;1153;47.986;7.898;2023-02-28T05:44:08;3.57;;;3.30;;
2289;SDS011;1153;47.986;7.898;2023-02-28T05:46:33;3.60;;;3.30;;
2289;SDS011;1153;47.986;7.898;2023-02-28T05:48:58;3.20;;;3.00;;
2289;SDS011;1153;47.986;7.898;2023-02-28T05:51:25;3.00;;;2.80;;
2289;SDS011;1153;47.986;7.898;2023-02-28T05:53:50;3.50;;;3.20;;
2289;SDS011;1153;47.986;7.898;2023-02-28T05:56:15;3.37;;;3.17;;
2289;SDS011;1153;47.986;7.898;2023-02-28T05:58:40;3.00;;;2.80;;
2289;SDS011;1153;47.986;7.898;2023-02-28T06:01:27;3.20;;;3.00;;
2289;SDS011;1153;47.986;7.898;2023-02-28T06:03:55;4.10;;;3.70;;
2289;SDS011;1153;47.986;7.898;2023-02-28T06:06:20;2.90;;;2.70;;
2289;SDS011;1153;47.986;7.898;2023-02-28T06:08:45;3.03;;;2.83;;
2289;SDS011;1153;47.986;7.898;2023-02-28T06:11:11;3.87;;;3.43;;
2289;SDS011;1153;47.986;7.898;2023-02-28T06:13:36;4.70;;;4.43;;
2289;SDS011;1153;47.986;7.898;2023-02-28T06:16:01;3.80;;;3.50;;
2289;SDS011;1153;47.986;7.898;2023-02-28T06:18:26;4.10;;;3.80;;
2289;SDS011;1153;47.986;7.898;2023-02-28T06:20:52;4.57;;;4.17;;
2289;SDS011;1153;47.986;7.898;2023-02-28T06:23:19;4.43;;;4.23;;
2289;SDS011;1153;47.986;7.898;2023-02-28T06:25:45;4.77;;;4.37;;
2289;SDS011;1153;47.986;7.898;2023-02-28T06:28:10;3.67;;;3.37;;
2289;SDS011;1153;47.986;7.898;2023-02-28T06:30:36;4.33;;;4.00;;
2289;SDS011;1153;47.986;7.898;2023-02-28T06:33:01;3.90;;;3.53;;
2289;SDS011;1153;47.986;7.898;2023-02-28T06:35:27;3.40;;;3.20;;
2289;SDS011;1153;47.986;7.898;2023-02-28T06:37:52;3.97;;;3.07;;
2289;SDS011;1153;47.986;7.898;2023-02-28T06:40:17;5.50;;;2.50;;
2289;SDS011;1153;47.986;7.898;2023-02-28T06:42:42;3.70;;;2.63;;
2289;SDS011;1153;47.986;7.898;2023-02-28T06:45:08;3.50;;;3.27;;
2289;SDS011;1153;47.986;7.898;2023-02-28T06:47:34;3.83;;;2.83;;
2289;SDS011;1153;47.986;7.898;2023-02-28T06:49:59;4.20;;;2.73;;
2289;SDS011;1153;47.986;7.898;2023-02-28T06:52:26;13.03;;;2.93;;
2289;SDS011;1153;47.986;7.898;2023-02-28T06:54:51;2.80;;;2.60;;
2289;SDS011;1153;47.986;7.898;2023-02-28T06:57:24;3.20;;;3.00;;
2289;SDS011;1153;47.986;7.898;2023-02-28T06:59:50;3.37;;;3.07;;
2289;SDS011;1153;47.986;7.898;2023-02-28T07:02:15;5.93;;;3.73;;
2289;SDS011;1153;47.986;7.898;2023-02-28T07:04:40;4.10;;;3.80;;
2289;SDS011;1153;47.986;7.898;2023-02-28T07:07:08;3.33;;;3.13;;
2289;SDS011;1153;47.986;7.898;2023-02-28T07:09:33;4.03;;;3.60;;
2289;SDS011;1153;47.986;7.898;2023-02-28T07:11:59;2.57;;;2.37;;
2289;SDS011;1153;47.986;7.898;2023-02-28T07:14:25;3.27;;;3.07;;
2289;SDS011;1153;47.986;7.898;2023-02-28T07:16:50;3.53;;;3.10;;
2289;SDS011;1153;47.986;7.898;2023-02-28T07:19:16;3.60;;;3.30;;
2289;SDS011;1153;47.986;7.898;2023-02-28T07:21:41;2.73;;;2.53;;
2289;SDS011;1153;47.986;7.898;2023-02-28T07:24:06;3.23;;;2.90;;
2289;SDS011;1153;47.986;7.898;2023-02-28T07:26:31;3.50;;;3.23;;
2289;SDS011;1153;47.986;7.898;2023-02-28T07:28:58;3.10;;;2.90;;
2289;SDS011;1153;47.986;7.898;2023-02-28T07:31:24;3.97;;;3.50;;
2289;SDS011;1153;47.986;7.898;2023-02-28T07:33:49;4.67;;;4.07;;
2289;SDS011;1153;47.986;7.898;2023-02-28T07:36:15;5.93;;;3.60;;
2289;SDS011;1153;47.986;7.898;2023-02-28T07:38:42;4.10;;;3.70;;
2289;SDS011;1153;47.986;7.898;2023-02-28T07:41:13;4.70;;;4.30;;
2289;SDS011;1153;47.986;7.898;2023-02-28T07:43:38;4.57;;;4.27;;
2289;SDS011;1153;47.986;7.898;2023-02-28T07:46:04;4.63;;;4.27;;
2289;SDS011;1153;47.986;7.898;2023-02-28T07:48:30;6.40;;;5.03;;
2289;SDS011;1153;47.986;7.898;2023-02-28T07:50:56;5.43;;;5.13;;
2289;SDS011;1153;47.986;7.898;2023-02-28T07:53:21;4.47;;;4.17;;
2289;SDS011;1153;47.986;7.898;2023-02-28T07:55:47;4.60;;;4.30;;
2289;SDS011;1153;47.986;7.898;2023-02-28T07:58:12;5.03;;;4.53;;
2289;SDS011;1153;47.986;7.898;2023-02-28T08:00:37;8.43;;;5.60;;
2289;SDS011;1153;47.986;7.898;2023-02-28T08:03:03;6.27;;;4.87;;
2289;SDS011;1153;47.986;7.898;2023-02-28T08:05:28;4.90;;;4.60;;
2289;SDS011;1153;47.986;7.898;2023-02-28T08:07:54;5.30;;;4.80;;
2289;SDS011;1153;47.986;7.898;2023-02-28T08:10:20;5.90;;;5.40;;
2289;SDS011;1153;47.986;7.898;2023-02-28T08:12:45;5.80;;;5.27;;
2289;SDS011;1153;47.986;7.898;2023-02-28T08:15:10;6.43;;;5.70;;
2289;SDS011;1153;47.986;7.898;2023-02-28T08:17:35;6.10;;;5.47;;
2289;SDS011;1153;47.986;7.898;2023-02-28T08:20:00;5.83;;;5.33;;
2289;SDS011;1153;47.986;7.898;2023-02-28T08:22:26;6.57;;;5.97;;
2289;SDS011;1153;47.986;7.898;2023-02-28T08:24:51;6.30;;;5.80;;
2289;SDS011;1153;47.986;7.898;2023-02-28T08:27:16;6.20;;;5.60;;
2289;SDS011;1153;47.986;7.898;2023-02-28T08:29:42;7.37;;;6.30;;
2289;SDS011;1153;47.986;7.898;2023-02-28T08:32:07;5.20;;;4.80;;
2289;SDS011;1153;47.986;7.898;2023-02-28T08:34:32;5.10;;;4.70;;
2289;SDS011;1153;47.986;7.898;2023-02-28T08:36:57;5.27;;;4.77;;
2289;SDS011;1153;47.986;7.898;2023-02-28T08:39:23;7.30;;;5.30;;
2289;SDS011;1153;47.986;7.898;2023-02-28T08:41:48;4.37;;;3.97;;
2289;SDS011;1153;47.986;7.898;2023-02-28T08:44:13;6.00;;;5.50;;
2289;SDS011;1153;47.986;7.898;2023-02-28T08:46:38;6.40;;;6.00;;
2289;SDS011;1153;47.986;7.898;2023-02-28T08:49:04;6.50;;;5.40;;
2289;SDS011;1153;47.986;7.898;2023-02-28T08:51:29;4.97;;;4.50;;
2289;SDS011;1153;47.986;7.898;2023-02-28T08:53:55;5.33;;;4.90;;
2289;SDS011;1153;47.986;7.898;2023-02-28T08:56:21;5.57;;;5.17;;
2289;SDS011;1153;47.986;7.898;2023-02-28T08:58:47;5.93;;;5.43;;
2289;SDS011;1153;47.986;7.898;2023-02-28T09:01:13;5.23;;;4.80;;
2289;SDS011;1153;47.986;7.898;2023-02-28T09:03:39;5.67;;;5.23;;
2289;SDS011;1153;47.986;7.898;2023-02-28T09:06:05;6.40;;;5.80;;
2289;SDS011;1153;47.986;7.898;2023-02-28T09:08:31;5.97;;;5.47;;
2289;SDS011;1153;47.986;7.898;2023-02-28T09:10:56;6.30;;;5.50;;
2289;SDS011;1153;47.986;7.898;2023-02-28T09:13:23;8.80;;;6.60;;
2289;SDS011;1153;47.986;7.898;2023-02-28T09:15:48;6.27;;;5.70;;
2289;SDS011;1153;47.986;7.898;2023-02-28T09:18:13;6.60;;;6.00;;
2289;SDS011;1153;47.986;7.898;2023-02-28T09:20:39;6.07;;;5.50;;
2289;SDS011;1153;47.986;7.898;2023-02-28T09:23:05;8.60;;;5.80;;
2289;SDS011;1153;47.986;7.898;2023-02-28T09:25:31;6.07;;;5.23;;
2289;SDS011;1153;47.986;7.898;2023-02-28T09:27:56;7.93;;;5.87;;
2289;SDS011;1153;47.986;7.898;2023-02-28T09:30:21;6.47;;;5.80;;
2289;SDS011;1153;47.986;7.898;2023-02-28T09:32:46;5.67;;;5.27;;
2289;SDS011;1153;47.986;7.898;2023-02-28T09:35:17;5.20;;;4.63;;
2289;SDS011;1153;47.986;7.898;2023-02-28T09:37:42;5.40;;;5.00;;
2289;SDS011;1153;47.986;7.898;2023-02-28T09:40:08;11.37;;;6.47;;
2289;SDS011;1153;47.986;7.898;2023-02-28T09:42:34;6.10;;;5.60;;
2289;SDS011;1153;47.986;7.898;2023-02-28T09:45:05;5.80;;;5.23;;
2289;SDS011;1153;47.986;7.898;2023-02-28T09:47:36;6.17;;;5.40;;
2289;SDS011;1153;47.986;7.898;2023-02-28T09:50:12;8.07;;;6.00;;
2289;SDS011;1153;47.986;7.898;2023-02-28T09:52:41;5.07;;;4.57;;
2289;SDS011;1153;47.986;7.898;2023-02-28T09:55:22;5.83;;;5.43;;
2289;SDS011;1153;47.986;7.898;2023-02-28T09:57:50;7.80;;;7.10;;
2289;SDS011;1153;47.986;7.898;2023-02-28T10:00:18;14.50;;;6.80;;
2289;SDS011;1153;47.986;7.898;2023-02-28T10:05:11;9.23;;;6.73;;
2289;SDS011;1153;47.986;7.898;2023-02-28T10:07:41;6.80;;;6.20;;
2289;SDS011;1153;47.986;7.898;2023-02-28T10:10:20;9.47;;;5.60;;
2289;SDS011;1153;47.986;7.898;2023-02-28T10:12:46;5.93;;;5.37;;
2289;SDS011;1153;47.986;7.898;2023-02-28T10:15:15;13.67;;;5.33;;
2289;SDS011;1153;47.986;7.898;2023-02-28T10:17:43;6.57;;;6.07;;
2289;SDS011;1153;47.986;7.898;2023-02-28T10:20:11;12.53;;;6.40;;
2289;SDS011;1153;47.986;7.898;2023-02-28T10:22:50;5.67;;;5.17;;
2289;SDS011;1153;47.986;7.898;2023-02-28T10:25:21;7.83;;;6.07;;
2289;SDS011;1153;47.986;7.898;2023-02-28T10:27:46;6.00;;;5.40;;
2289;SDS011;1153;47.986;7.898;2023-02-28T10:30:12;5.93;;;5.43;;
2289;SDS011;1153;47.986;7.898;2023-02-28T10:32:38;6.00;;;4.83;;
2289;SDS011;1153;47.986;7.898;2023-02-28T10:37:40;6.43;;;5.70;;
2289;SDS011;1153;47.986;7.898;2023-02-28T10:40:06;8.57;;;6.30;;
2289;SDS011;1153;47.986;7.898;2023-02-28T10:42:32;6.67;;;6.27;;
2289;SDS011;1153;47.986;7.898;2023-02-28T10:45:10;5.40;;;5.00;;
2289;SDS011;1153;47.986;7.898;2023-02-28T10:47:37;7.73;;;6.80;;
2289;SDS011;1153;47.986;7.898;2023-02-28T10:50:08;8.93;;;7.20;;
2289;SDS011;1153;47.986;7.898;2023-02-28T10:52:51;6.37;;;5.93;;
2289;SDS011;1153;47.986;7.898;2023-02-28T10:55:20;5.93;;;5.40;;
2289;SDS011;1153;47.986;7.898;2023-02-28T10:57:46;7.47;;;6.80;;
2289;SDS011;1153;47.986;7.898;2023-02-28T11:00:16;6.60;;;5.33;;
2289;SDS011;1153;47.986;7.898;2023-02-28T11:02:42;5.97;;;5.30;;
2289;SDS011;1153;47.986;7.898;2023-02-28T11:07:50;5.80;;;5.27;;
2289;SDS011;1153;47.986;7.898;2023-02-28T11:10:18;6.67;;;6.13;;
2289;SDS011;1153;47.986;7.898;2023-02-28T11:12:44;6.30;;;5.70;;
2289;SDS011;1153;47.986;7.898;2023-02-28T11:15:21;5.63;;;5.10;;
2289;SDS011;1153;47.986;7.898;2023-02-28T11:20:31;7.00;;;6.37;;
2289;SDS011;1153;47.986;7.898;2023-02-28T11:22:57;6.57;;;6.07;;
2289;SDS011;1153;47.986;7.898;2023-02-28T11:25:33;7.10;;;6.30;;
2289;SDS011;1153;47.986;7.898;2023-02-28T11:28:00;6.17;;;5.67;;
2289;SDS011;1153;47.986;7.898;2023-02-28T11:32:52;6.33;;;5.83;;
2289;SDS011;1153;47.986;7.898;2023-02-28T11:35:18;8.50;;;5.90;;
2289;SDS011;1153;47.986;7.898;2023-02-28T11:37:47;7.80;;;6.57;;
2289;SDS011;1153;47.986;7.898;2023-02-28T11:40:13;7.00;;;6.60;;
2289;SDS011;1153;47.986;7.898;2023-02-28T11:45:36;6.87;;;6.27;;
2289;SDS011;1153;47.986;7.898;2023-02-28T11:48:07;6.57;;;6.07;;
2289;SDS011;1153;47.986;7.898;2023-02-28T12:03:31;6.90;;;6.37;;
2289;SDS011;1153;47.986;7.898;2023-02-28T12:06:01;7.07;;;6.37;;
2289;SDS011;1153;47.986;7.898;2023-02-28T12:16:37;7.43;;;6.10;;
2289;SDS011;1153;47.986;7.898;2023-02-28T12:19:10;7.23;;;6.67;;
2289;SDS011;1153;47.986;7.898;2023-02-28T12:21:42;6.20;;;5.70;;
2289;SDS011;1153;47.986;7.898;2023-02-28T12:26:44;6.80;;;6.13;;
2289;SDS011;1153;47.986;7.898;2023-02-28T12:31:55;7.57;;;6.93;;
2289;SDS011;1153;47.986;7.898;2023-02-28T12:34:22;7.40;;;6.83;;
2289;SDS011;1153;47.986;7.898;2023-02-28T12:36:50;6.20;;;5.80;;
2289;SDS011;1153;47.986;7.898;2023-02-28T12:39:18;10.40;;;6.97;;
2289;SDS011;1153;47.986;7.898;2023-02-28T12:41:46;6.47;;;5.97;;
2289;SDS011;1153;47.986;7.898;2023-02-28T12:44:22;12.07;;;6.73;;
2289;SDS011;1153;47.986;7.898;2023-02-28T12:46:51;7.73;;;7.00;;
2289;SDS011;1153;47.986;7.898;2023-02-28T12:49:52;6.90;;;6.33;;
2289;SDS011;1153;47.986;7.898;2023-02-28T12:52:08;8.50;;;7.20;;
2289;SDS011;1153;47.986;7.898;2023-02-28T13:00:23;7.30;;;6.67;;
2289;SDS011;1153;47.986;7.898;2023-02-28T13:05:24;8.83;;;8.03;;
2289;SDS011;1153;47.986;7.898;2023-02-28T13:10:24;6.97;;;6.37;;
2289;SDS011;1153;47.986;7.898;2023-02-28T13:12:52;8.20;;;7.60;;
2289;SDS011;1153;47.986;7.898;2023-02-28T13:15:22;9.50;;;7.17;;
2289;SDS011;1153;47.986;7.898;2023-02-28T13:17:53;8.60;;;7.07;;
2289;SDS011;1153;47.986;7.898;2023-02-28T13:22:51;7.17;;;6.47;;
2289;SDS011;1153;47.986;7.898;2023-02-28T13:27:58;6.70;;;6.20;;
2289;SDS011;1153;47.986;7.898;2023-02-28T13:38:43;7.40;;;6.70;;
2289;SDS011;1153;47.986;7.898;2023-02-28T13:43:59;7.90;;;7.27;;
2289;SDS011;1153;47.986;7.898;2023-02-28T13:46:24;9.57;;;7.43;;
2289;SDS011;1153;47.986;7.898;2023-02-28T13:48:49;8.17;;;7.40;;
2289;SDS011;1153;47.986;7.898;2023-02-28T13:54:16;9.57;;;7.40;;
2289;SDS011;1153;47.986;7.898;2023-02-28T13:56:49;8.10;;;7.30;;
2289;SDS011;1153;47.986;7.898;2023-02-28T13:59:20;7.93;;;7.33;;
2289;SDS011;1153;47.986;7.898;2023-02-28T14:02:01;8.20;;;7.37;;
2289;SDS011;1153;47.986;7.898;2023-02-28T14:07:01;7.83;;;7.23;;
2289;SDS011;1153;47.986;7.898;2023-02-28T14:09:28;10.20;;;8.17;;
2289;SDS011;1153;47.986;7.898;2023-02-28T14:11:54;9.47;;;8.20;;
2289;SDS011;1153;47.986;7.898;2023-02-28T14:16:59;8.83;;;8.03;;
2289;SDS011;1153;47.986;7.898;2023-02-28T14:19:29;8.90;;;7.23;;
2289;SDS011;1153;47.986;7.898;2023-02-28T14:24:42;8.47;;;7.93;;
2289;SDS011;1153;47.986;7.898;2023-02-28T14:32:32;9.67;;;8.80;;
2289;SDS011;1153;47.986;7.898;2023-02-28T14:37:26;7.90;;;7.20;;
2289;SDS011;1153;47.986;7.898;2023-02-28T14:39:51;12.90;;;7.90;;
2289;SDS011;1153;47.986;7.898;2023-02-28T14:42:28;11.80;;;8.63;;
2289;SDS011;1153;47.986;7.898;2023-02-28T14:44:55;10.60;;;7.67;;
2289;SDS011;1153;47.986;7.898;2023-02-28T14:47:26;10.47;;;7.33;;
2289;SDS011;1153;47.986;7.898;2023-02-28T14:49:52;9.43;;;8.60;;
2289;SDS011;1153;47.986;7.898;2023-02-28T14:54:42;8.15;;;7.45;;
2289;SDS011;1153;47.986;7.898;2023-02-28T14:57:25;9.03;;;8.33;;
2289;SDS011;1153;47.986;7.898;2023-02-28T15:02:30;10.37;;;9.53;;
2289;SDS011;1153;47.986;7.898;2023-02-28T15:05:15;9.40;;;8.40;;
2289;SDS011;1153;47.986;7.898;2023-02-28T15:07:41;8.60;;;7.80;;
2289;SDS011;1153;47.986;7.898;2023-02-28T15:10:25;9.30;;;8.50;;
2289;SDS011;1153;47.986;7.898;2023-02-28T15:15:16;10.40;;;9.40;;
2289;SDS011;1153;47.986;7.898;2023-02-28T15:17:44;9.00;;;8.13;;
2289;SDS011;1153;47.986;7.898;2023-02-28T15:20:13;9.67;;;8.60;;
2289;SDS011;1153;47.986;7.898;2023-02-28T15:22:38;9.03;;;8.13;;
2289;SDS011;1153;47.986;7.898;2023-02-28T15:25:04;10.00;;;9.10;;
2289;SDS011;1153;47.986;7.898;2023-02-28T15:27:31;10.93;;;8.63;;
2289;SDS011;1153;47.986;7.898;2023-02-28T15:30:01;10.03;;;9.07;;
2289;SDS011;1153;47.986;7.898;2023-02-28T15:32:30;8.90;;;8.00;;
2289;SDS011;1153;47.986;7.898;2023-02-28T15:34:56;12.87;;;8.97;;
2289;SDS011;1153;47.986;7.898;2023-02-28T15:37:30;10.17;;;9.33;;
2289;SDS011;1153;47.986;7.898;2023-02-28T15:39:57;9.17;;;8.47;;
2289;SDS011;1153;47.986;7.898;2023-02-28T15:42:30;12.73;;;9.83;;
2289;SDS011;1153;47.986;7.898;2023-02-28T15:44:56;12.43;;;8.10;;
2289;SDS011;1153;47.986;7.898;2023-02-28T15:47:22;8.93;;;8.33;;
2289;SDS011;1153;47.986;7.898;2023-02-28T15:49:49;10.43;;;9.53;;
2289;SDS011;1153;47.986;7.898;2023-02-28T15:52:16;9.67;;;8.83;;
2289;SDS011;1153;47.986;7.898;2023-02-28T15:54:42;10.70;;;9.60;;
2289;SDS011;1153;47.986;7.898;2023-02-28T15:57:12;10.43;;;9.53;;
2289;SDS011;1153;47.986;7.898;2023-02-28T15:59:38;9.17;;;8.40;;
2289;SDS011;1153;47.986;7.898;2023-02-28T16:04:35;10.40;;;9.40;;
2289;SDS011;1153;47.986;7.898;2023-02-28T16:07:04;10.07;;;9.17;;
2289;SDS011;1153;47.986;7.898;2023-02-28T16:09:30;20.93;;;9.97;;
2289;SDS011;1153;47.986;7.898;2023-02-28T16:11:56;9.93;;;9.03;;
2289;SDS011;1153;47.986;7.898;2023-02-28T16:14:24;10.80;;;8.77;;
2289;SDS011;1153;47.986;7.898;2023-02-28T16:16:52;9.93;;;9.17;;
2289;SDS011;1153;47.986;7.898;2023-02-28T16:19:18;10.43;;;9.50;;
2289;SDS011;1153;47.986;7.898;2023-02-28T16:21:43;10.53;;;9.43;;
2289;SDS011;1153;47.986;7.898;2023-02-28T16:24:09;12.53;;;11.07;;
2289;SDS011;1153;47.986;7.898;2023-02-28T16:26:34;11.40;;;9.97;;
2289;SDS011;1153;47.986;7.898;2023-02-28T16:29:02;12.13;;;8.80;;
2289;SDS011;1153;47.986;7.898;2023-02-28T16:31:27;9.70;;;8.87;;
2289;SDS011;1153;47.986;7.898;2023-02-28T16:33:53;10.83;;;9.73;;
2289;SDS011;1153;47.986;7.898;2023-02-28T16:36:19;9.33;;;8.60;;
2289;SDS011;1153;47.986;7.898;2023-02-28T16:38:45;9.80;;;8.90;;
2289;SDS011;1153;47.986;7.898;2023-02-28T16:41:18;9.20;;;8.40;;
2289;SDS011;1153;47.986;7.898;2023-02-28T16:43:46;10.57;;;8.97;;
2289;SDS011;1153;47.986;7.898;2023-02-28T16:46:12;10.67;;;9.80;;
2289;SDS011;1153;47.986;7.898;2023-02-28T16:48:38;10.37;;;8.70;;
2289;SDS011;1153;47.986;7.898;2023-02-28T16:51:05;12.73;;;9.97;;
2289;SDS011;1153;47.986;7.898;2023-02-28T16:53:30;11.20;;;9.17;;
2289;SDS011;1153;47.986;7.898;2023-02-28T16:55:56;9.87;;;8.97;;
2289;SDS011;1153;47.986;7.898;2023-02-28T16:58:21;10.10;;;8.87;;
2289;SDS011;1153;47.986;7.898;2023-02-28T17:00:50;10.60;;;9.10;;
2289;SDS011;1153;47.986;7.898;2023-02-28T17:03:26;10.23;;;9.03;;
2289;SDS011;1153;47.986;7.898;2023-02-28T17:05:52;12.50;;;9.80;;
2289;SDS011;1153;47.986;7.898;2023-02-28T17:08:18;12.80;;;9.67;;
2289;SDS011;1153;47.986;7.898;2023-02-28T17:10:43;14.97;;;9.70;;
2289;SDS011;1153;47.986;7.898;2023-02-28T17:13:09;11.40;;;9.47;;
2289;SDS011;1153;47.986;7.898;2023-02-28T17:15:34;11.50;;;10.50;;
2289;SDS011;1153;47.986;7.898;2023-02-28T17:18:00;16.50;;;12.63;;
2289;SDS011;1153;47.986;7.898;2023-02-28T17:20:25;17.37;;;10.37;;
2289;SDS011;1153;47.986;7.898;2023-02-28T17:22:52;14.23;;;9.30;;
2289;SDS011;1153;47.986;7.898;2023-02-28T17:25:17;10.33;;;9.10;;
2289;SDS011;1153;47.986;7.898;2023-02-28T17:27:42;13.67;;;10.73;;